Time;durP1;ratioP1;P1;durP2;ratioP2;P2;SDS_P1;SDS_P2;PMS_P1;PMS_P2;Temp;Humidity;BMP_temperature;BMP_pressure;BME280_temperature;BME280_humidity;BME280_pressure;Samples;Min_cycle;Max_cycle;Signal;HPM_P1;HPM_P2
2023/08/27 00:00:47;;;;;;;5.00;2.80;;;;;;;14.25;100.00;100844.44;5283856;28;20036;-78
2023/08/27 00:03:18;;;;;;;5.00;2.63;;;;;;;14.12;100.00;100852.66;5283573;28;20120;-78
2023/08/27 00:05:51;;;;;;;4.13;2.63;;;;;;;13.94;100.00;100837.41;5286435;28;20032;-77
2023/08/27 00:08:22;;;;;;;4.47;2.60;;;;;;;14.01;100.00;100831.13;5287462;28;20064;-79
2023/08/27 00:10:58;;;;;;;3.80;2.20;;;;;;;13.72;100.00;100824.84;5268294;28;20469;-80
2023/08/27 00:13:30;;;;;;;4.60;2.42;;;;;;;13.63;100.00;100804.97;5266294;28;20036;-79
2023/08/27 00:16:04;;;;;;;3.70;2.47;;;;;;;13.68;100.00;100792.66;5266196;28;20035;-79
2023/08/27 00:18:35;;;;;;;3.85;2.45;;;;;;;13.66;100.00;100788.34;5266441;28;20462;-79
2023/08/27 00:21:07;;;;;;;3.43;2.30;;;;;;;13.51;100.00;100784.34;5248506;28;20065;-79
2023/08/27 00:23:39;;;;;;;3.27;2.40;;;;;;;13.56;100.00;100773.75;5266146;28;20484;-79
2023/08/27 00:26:12;;;;;;;;;;;;;;;13.48;100.00;100764.31;5266922;28;20033;-79
2023/08/27 00:28:43;;;;;;;3.33;2.28;;;;;;;13.55;100.00;100758.94;5266318;28;20353;-78
2023/08/27 00:31:14;;;;;;;3.60;2.30;;;;;;;13.64;100.00;100748.22;5266290;28;20029;-78
2023/08/27 00:33:46;;;;;;;6.03;3.00;;;;;;;13.65;100.00;100749.94;5248120;28;20029;-78
2023/08/27 00:36:17;;;;;;;4.37;2.37;;;;;;;13.61;100.00;100754.41;5266074;28;20505;-78
2023/08/27 00:38:48;;;;;;;4.63;2.43;;;;;;;13.54;100.00;100739.75;5266282;28;20032;-78
2023/08/27 00:41:20;;;;;;;3.07;1.80;;;;;;;13.45;100.00;100743.44;5247694;28;20032;-78
2023/08/27 00:43:51;;;;;;;6.37;2.47;;;;;;;13.48;100.00;100747.75;5265884;28;20045;-77
2023/08/27 00:46:22;;;;;;;2.70;2.43;;;;;;;13.56;100.00;100734.47;5265951;28;20029;-78
2023/08/27 00:48:54;;;;;;;5.57;2.27;;;;;;;13.43;100.00;100737.41;5265711;28;20029;-78
2023/08/27 00:51:26;;;;;;;3.30;2.03;;;;;;;13.30;100.00;100738.59;5265653;28;20095;-78
2023/08/27 00:53:58;;;;;;;3.60;1.93;;;;;;;13.44;100.00;100738.25;5265720;28;20479;-78
2023/08/27 00:56:30;;;;;;;3.42;2.20;;;;;;;13.51;100.00;100739.84;5265787;28;20039;-78
2023/08/27 00:59:02;;;;;;;3.28;1.80;;;;;;;13.45;100.00;100738.22;5265494;28;20032;-77
2023/08/27 01:01:35;;;;;;;3.33;2.10;;;;;;;13.44;100.00;100736.50;5265594;28;20029;-78
2023/08/27 01:04:06;;;;;;;3.60;2.17;;;;;;;13.43;100.00;100739.16;5265168;28;20032;-78
2023/08/27 01:06:38;;;;;;;4.27;1.93;;;;;;;13.39;100.00;100734.91;5265464;28;20104;-78
2023/08/27 01:09:36;;;;;;;3.47;2.30;;;;;;;13.37;100.00;100737.56;5264644;28;20053;-77
2023/08/27 01:12:09;;;;;;;3.40;1.98;;;;;;;13.27;100.00;100731.66;5265671;28;20080;-76
2023/08/27 01:14:46;;;;;;;3.13;1.92;;;;;;;13.33;100.00;100733.31;5264841;28;20029;-76
2023/08/27 01:17:20;;;;;;;3.22;1.98;;;;;;;13.22;100.00;100727.44;5263964;28;20036;-78
2023/08/27 01:19:52;;;;;;;4.18;1.88;;;;;;;13.27;100.00;100718.56;5265021;28;20025;-77
2023/08/27 01:22:23;;;;;;;2.28;1.77;;;;;;;13.17;100.00;100718.81;5247263;28;20052;-77
2023/08/27 01:24:54;;;;;;;3.60;2.63;;;;;;;13.14;100.00;100719.78;5264969;28;20116;-78
2023/08/27 01:27:42;;;;;;;4.03;2.20;;;;;;;13.09;100.00;100717.28;5264692;28;20039;-76
2023/08/27 01:30:55;;;;;;;3.97;2.65;;;;;;;12.97;100.00;100722.78;5264893;28;20032;-77
2023/08/27 01:33:28;;;;;;;2.53;1.95;;;;;;;12.93;100.00;100713.31;5231126;28;20081;-77
2023/08/27 01:36:01;;;;;;;4.22;1.90;;;;;;;12.99;100.00;100717.50;5285554;28;20044;-76
2023/08/27 01:38:32;;;;;;;;;;;;;;;12.91;100.00;100712.47;5285946;28;20062;-76
2023/08/27 01:41:06;;;;;;;2.90;2.03;;;;;;;12.94;100.00;100713.28;5284727;28;19942;-76
2023/08/27 01:43:37;;;;;;;4.43;3.05;;;;;;;13.03;100.00;100713.94;5285446;28;20153;-77
2023/08/27 01:46:09;;;;;;;3.37;2.00;;;;;;;13.16;100.00;100711.88;5285433;28;20040;-77
2023/08/27 01:48:40;;;;;;;4.10;2.60;;;;;;;13.12;100.00;100713.69;5285054;28;20070;-77
2023/08/27 01:51:11;;;;;;;2.83;2.13;;;;;;;13.25;100.00;100716.88;5285369;28;20361;-77
2023/08/27 01:53:43;;;;;;;2.60;1.83;;;;;;;13.26;100.00;100708.13;5267613;28;20052;-77
2023/08/27 01:56:14;;;;;;;3.33;2.00;;;;;;;13.28;100.00;100714.19;5285141;28;20032;-76
2023/08/27 01:58:45;;;;;;;2.70;1.90;;;;;;;13.27;100.00;100710.72;5285265;28;20082;-77
2023/08/27 02:01:17;;;;;;;2.67;1.80;;;;;;;13.45;100.00;100706.78;5250625;28;20028;-76
2023/08/27 02:03:48;;;;;;;2.50;1.90;;;;;;;13.38;100.00;100701.75;5284998;28;20090;-77
2023/08/27 02:06:20;;;;;;;4.43;1.70;;;;;;;13.46;100.00;100708.53;5285072;28;20579;-77
2023/08/27 02:08:51;;;;;;;2.40;1.90;;;;;;;13.52;100.00;100709.25;5266762;28;20456;-76
2023/08/27 02:11:23;;;;;;;2.97;1.80;;;;;;;13.44;100.00;100706.81;5284367;28;20436;-76
2023/08/27 02:13:54;;;;;;;2.20;1.70;;;;;;;13.55;100.00;100712.66;5284827;28;20456;-76
2023/08/27 02:16:25;;;;;;;3.50;2.40;;;;;;;13.50;100.00;100712.75;5284707;28;20029;-76
2023/08/27 02:18:57;;;;;;;2.80;2.00;;;;;;;13.54;100.00;100712.69;5284733;28;20041;-76
2023/08/27 02:21:29;;;;;;;3.40;2.20;;;;;;;13.46;100.00;100720.75;5284819;28;20036;-76
2023/08/27 02:24:00;;;;;;;5.88;2.33;;;;;;;13.45;100.00;100713.81;5284492;28;20029;-77
2023/08/27 02:26:32;;;;;;;3.83;2.43;;;;;;;13.44;100.00;100722.53;5284591;28;20049;-77
2023/08/27 02:29:03;;;;;;;5.53;2.23;;;;;;;13.47;100.00;100712.84;5283945;28;20075;-77
2023/08/27 02:31:34;;;;;;;4.63;2.80;;;;;;;13.52;100.00;100709.25;5283895;28;20044;-77
2023/08/27 02:34:06;;;;;;;4.97;2.37;;;;;;;13.42;100.00;100711.25;5284545;28;20383;-79
2023/08/27 02:36:37;;;;;;;4.45;2.50;;;;;;;13.27;100.00;100725.56;5284361;28;20029;-79
2023/08/27 02:39:09;;;;;;;7.73;2.83;;;;;;;13.20;100.00;100719.63;5266724;28;20032;-79
2023/08/27 02:41:40;;;;;;;6.83;3.57;;;;;;;13.12;100.00;100717.19;5265787;28;20032;-79
2023/08/27 02:44:12;;;;;;;8.07;3.30;;;;;;;13.00;100.00;100714.03;5283884;28;20119;-79
2023/08/27 02:46:43;;;;;;;5.37;3.13;;;;;;;12.98;100.00;100716.66;5284181;28;20060;-79
2023/08/27 02:49:15;;;;;;;4.60;3.13;;;;;;;13.05;100.00;100717.38;5266400;28;20464;-79
2023/08/27 02:51:46;;;;;;;6.33;3.20;;;;;;;13.03;100.00;100717.41;5284085;28;20035;-79
2023/08/27 02:54:17;;;;;;;6.27;3.63;;;;;;;13.03;100.00;100708.72;5284102;28;20029;-79
2023/08/27 02:56:49;;;;;;;14.00;3.77;;;;;;;12.98;100.00;100718.44;5283957;28;20068;-78
2023/08/27 02:59:20;;;;;;;5.77;3.60;;;;;;;13.06;100.00;100719.09;5283960;28;20047;-79
2023/08/27 03:01:52;;;;;;;5.37;3.77;;;;;;;13.03;100.00;100706.09;5276291;28;20484;-78
2023/08/27 03:04:24;;;;;;;6.82;3.88;;;;;;;13.11;100.00;100702.38;5273333;28;20024;-78
2023/08/27 03:06:55;;;;;;;6.47;3.93;;;;;;;13.04;100.00;100711.28;5272541;28;20087;-78
2023/08/27 03:09:26;;;;;;;4.37;3.50;;;;;;;13.06;100.00;100703.41;5273863;28;20120;-79
2023/08/27 03:11:58;;;;;;;5.10;3.70;;;;;;;13.09;100.00;100708.56;5265465;28;20028;-79
2023/08/27 03:14:29;;;;;;;6.43;3.83;;;;;;;13.19;100.00;100714.44;5262964;28;20033;-79
2023/08/27 03:17:00;;;;;;;7.07;3.73;;;;;;;13.18;100.00;100718.78;5262517;28;20059;-77
2023/08/27 03:19:32;;;;;;;8.53;3.67;;;;;;;13.16;100.00;100730.22;5262528;28;20091;-78
2023/08/27 03:22:03;;;;;;;5.33;3.80;;;;;;;13.21;100.00;100721.34;5263018;28;20043;-78
2023/08/27 03:24:35;;;;;;;5.07;3.10;;;;;;;13.22;100.00;100723.06;5262677;28;20033;-78
2023/08/27 03:27:06;;;;;;;8.20;3.80;;;;;;;13.21;100.00;100726.56;5262532;28;20047;-78
2023/08/27 03:29:38;;;;;;;6.00;4.00;;;;;;;13.24;100.00;100743.97;5262977;28;20086;-77
2023/08/27 03:32:11;;;;;;;5.63;3.75;;;;;;;13.25;100.00;100737.81;5262584;28;20263;-79
2023/08/27 03:34:42;;;;;;;;;;;;;;;13.27;100.00;100726.41;5262662;28;20111;-80
2023/08/27 03:37:13;;;;;;;7.80;3.80;;;;;;;13.27;100.00;100723.81;5262673;28;20336;-80
2023/08/27 03:39:45;;;;;;;5.43;3.87;;;;;;;13.21;100.00;100723.09;5261425;28;20045;-80
2023/08/27 03:42:16;;;;;;;10.40;4.20;;;;;;;13.17;100.00;100711.84;5244563;28;20036;-79
2023/08/27 03:44:48;;;;;;;5.53;3.77;;;;;;;13.11;100.00;100694.53;5262507;28;20422;-78
2023/08/27 03:47:19;;;;;;;8.10;4.10;;;;;;;13.20;100.00;100696.06;5262340;28;20476;-78
2023/08/27 03:49:50;;;;;;;5.80;4.40;;;;;;;13.23;100.00;100692.50;5262396;28;20075;-79
2023/08/27 03:52:22;;;;;;;6.67;3.57;;;;;;;13.16;100.00;100694.41;5262109;28;20392;-79
2023/08/27 03:54:53;;;;;;;6.17;4.07;;;;;;;13.14;100.00;100693.59;5262475;28;20057;-80
2023/08/27 03:57:25;;;;;;;6.40;3.50;;;;;;;13.25;100.00;100688.97;5262292;28;20025;-77
2023/08/27 03:59:56;;;;;;;9.40;4.27;;;;;;;13.18;100.00;100678.69;5244554;28;20029;-78
2023/08/27 04:02:27;;;;;;;5.37;3.70;;;;;;;13.23;100.00;100672.41;5262297;28;20480;-78
2023/08/27 04:04:59;;;;;;;7.93;3.77;;;;;;;13.24;100.00;100675.91;5262371;28;20064;-78
2023/08/27 04:07:30;;;;;;;5.67;3.67;;;;;;;13.19;100.00;100683.03;5262541;28;20079;-79
2023/08/27 04:10:03;;;;;;;5.63;3.40;;;;;;;13.29;100.00;100682.72;5261410;28;20045;-78
2023/08/27 04:12:35;;;;;;;6.88;3.58;;;;;;;13.29;100.00;100687.13;5261934;28;20025;-76
2023/08/27 04:15:07;;;;;;;6.30;3.80;;;;;;;13.28;100.00;100670.56;5261848;28;20056;-77
2023/08/27 04:17:38;;;;;;;5.97;3.65;;;;;;;13.21;100.00;100683.84;5261731;28;20401;-79
2023/08/27 04:20:10;;;;;;;4.87;3.03;;;;;;;13.26;100.00;100693.28;5262283;28;20477;-78
2023/08/27 04:22:41;;;;;;;5.50;3.27;;;;;;;13.26;100.00;100693.28;5244298;28;20029;-78
2023/08/27 04:25:15;;;;;;;3.27;2.60;;;;;;;13.22;100.00;100694.28;5262134;28;20033;-78
2023/08/27 04:27:46;;;;;;;4.75;3.05;;;;;;;13.21;100.00;100694.31;5244448;28;20037;-78
2023/08/27 04:30:18;;;;;;;6.03;3.57;;;;;;;13.23;100.00;100692.50;5261678;28;20377;-78
2023/08/27 04:32:49;;;;;;;6.97;3.37;;;;;;;13.23;100.00;100687.25;5261964;28;20032;-78
2023/08/27 04:35:21;;;;;;;5.13;3.10;;;;;;;13.25;100.00;100691.56;5261615;28;20488;-78
2023/08/27 04:37:52;;;;;;;5.27;3.27;;;;;;;13.22;100.00;100688.19;5261769;28;20033;-78
2023/08/27 04:40:23;;;;;;;4.77;3.17;;;;;;;13.17;100.00;100684.78;5261345;28;20033;-77
2023/08/27 04:42:58;;;;;;;8.07;3.30;;;;;;;13.19;100.00;100688.25;5261508;28;20033;-77
2023/08/27 04:45:29;;;;;;;6.03;3.35;;;;;;;13.19;100.00;100693.50;5261490;28;20095;-77
2023/08/27 04:48:01;;;;;;;6.33;3.50;;;;;;;13.16;100.00;100694.41;5261813;28;20411;-77
2023/08/27 04:50:32;;;;;;;10.83;3.40;;;;;;;13.14;100.00;100696.22;5244590;28;20456;-77
2023/08/27 04:53:03;;;;;;;7.23;3.33;;;;;;;13.11;100.00;100696.28;5265373;28;20546;-77
2023/08/27 04:55:35;;;;;;;6.57;2.80;;;;;;;13.13;100.00;100697.97;5265711;28;20091;-77
2023/08/27 04:58:08;;;;;;;4.30;3.17;;;;;;;13.14;100.00;100712.78;5265590;28;20108;-77
2023/08/27 05:00:39;;;;;;;7.60;3.28;;;;;;;13.10;100.00;100711.13;5248335;28;20033;-78
2023/08/27 05:03:11;;;;;;;4.07;3.10;;;;;;;13.12;100.00;100721.53;5266010;28;20029;-77
2023/08/27 05:05:42;;;;;;;5.13;2.43;;;;;;;13.13;100.00;100720.66;5265855;28;20064;-77
2023/08/27 05:08:13;;;;;;;3.10;2.40;;;;;;;13.18;100.00;100723.16;5266471;28;20037;-77
2023/08/27 05:10:45;;;;;;;5.27;3.20;;;;;;;13.22;100.00;100719.59;5265757;28;20159;-77
2023/08/27 05:13:17;;;;;;;4.30;2.73;;;;;;;13.23;100.00;100722.16;5266089;28;20115;-78
2023/08/27 05:15:48;;;;;;;5.50;3.33;;;;;;;13.24;100.00;100715.19;5266094;28;20041;-77
2023/08/27 05:18:19;;;;;;;5.83;3.33;;;;;;;13.26;100.00;100718.59;5266125;28;20753;-77
2023/08/27 05:20:51;;;;;;;4.53;3.13;;;;;;;13.29;100.00;100713.28;5248161;28;20068;-76
2023/08/27 05:23:23;;;;;;;4.60;3.23;;;;;;;13.31;100.00;100715.00;5247761;28;20383;-77
2023/08/27 05:25:55;;;;;;;6.30;3.45;;;;;;;13.38;100.00;100713.09;5265354;28;20044;-76
2023/08/27 05:28:26;;;;;;;6.70;3.80;;;;;;;13.33;100.00;100717.59;5265540;28;20036;-76
2023/08/27 05:30:57;;;;;;;7.30;3.20;;;;;;;13.37;100.00;100714.00;5264878;28;20276;-77
2023/08/27 05:33:29;;;;;;;13.00;3.63;;;;;;;13.35;100.00;100701.81;5264878;28;20041;-77
2023/08/27 05:36:00;;;;;;;11.60;4.20;;;;;;;13.30;100.00;100710.63;5264919;28;20033;-77
2023/08/27 05:38:31;;;;;;;6.70;3.90;;;;;;;13.32;100.00;100702.75;5246668;28;20037;-77
2023/08/27 05:41:03;;;;;;;5.57;3.80;;;;;;;13.31;100.00;100707.13;5264154;28;20504;-77
2023/08/27 05:43:34;;;;;;;5.37;3.63;;;;;;;13.35;100.00;100714.91;5265063;28;20556;-77
2023/08/27 05:46:05;;;;;;;9.10;4.00;;;;;;;13.35;100.00;100720.16;5264736;28;20067;-78
2023/08/27 05:48:38;;;;;;;5.77;3.40;;;;;;;13.32;100.00;100724.56;5264719;28;20033;-76
2023/08/27 05:51:09;;;;;;;5.18;3.30;;;;;;;13.31;100.00;100719.34;5264566;28;20029;-76
2023/08/27 05:53:42;;;;;;;6.27;3.77;;;;;;;13.38;100.00;100720.97;5264209;28;20040;-78
2023/08/27 05:56:13;;;;;;;7.55;3.83;;;;;;;13.40;100.00;100711.28;5264605;28;20493;-76
2023/08/27 05:58:44;;;;;;;5.33;3.40;;;;;;;13.42;100.00;100704.25;5264542;28;20175;-77
2023/08/27 06:01:16;;;;;;;7.93;3.50;;;;;;;13.41;100.00;100704.28;5264128;28;20087;-77
2023/08/27 06:03:47;;;;;;;5.03;3.87;;;;;;;13.47;100.00;100706.75;5263924;28;20032;-78
2023/08/27 06:06:19;;;;;;;5.47;3.50;;;;;;;13.50;100.00;100707.53;5263882;28;20480;-76
2023/08/27 06:08:50;;;;;;;6.67;3.90;;;;;;;13.55;100.00;100706.56;5246294;28;20499;-76
2023/08/27 06:11:21;;;;;;;8.07;4.17;;;;;;;13.67;100.00;100703.63;5263824;28;20472;-76
2023/08/27 06:13:53;;;;;;;7.10;3.70;;;;;;;13.64;100.00;100696.69;5264045;28;20126;-76
2023/08/27 06:16:24;;;;;;;8.10;4.40;;;;;;;13.64;100.00;100696.69;5263760;28;20037;-77
2023/08/27 06:18:56;;;;;;;10.77;5.07;;;;;;;13.66;100.00;100701.91;5244422;28;20079;-77
2023/08/27 06:21:27;;;;;;;6.67;3.63;;;;;;;13.65;100.00;100690.56;5263666;28;20052;-77
2023/08/27 06:23:59;;;;;;;6.10;3.30;;;;;;;13.63;100.00;100694.13;5272213;28;20032;-78
2023/08/27 06:26:30;;;;;;;6.20;3.50;;;;;;;13.57;100.00;100695.16;5245027;28;20120;-79
2023/08/27 06:29:01;;;;;;;7.73;4.10;;;;;;;13.61;100.00;100682.81;5274224;28;20029;-77
2023/08/27 06:31:33;;;;;;;4.57;3.40;;;;;;;13.62;100.00;100682.78;5284363;28;20071;-77
2023/08/27 06:34:04;;;;;;;5.13;3.57;;;;;;;13.64;100.00;100686.22;5283427;28;20029;-78
2023/08/27 06:36:36;;;;;;;5.50;3.50;;;;;;;13.66;100.00;100689.66;5265651;28;20040;-76
2023/08/27 06:39:07;;;;;;;6.93;3.65;;;;;;;13.78;100.00;100685.84;5282930;28;20575;-76
2023/08/27 06:41:39;;;;;;;6.63;3.57;;;;;;;13.80;100.00;100694.53;5269861;28;20112;-77
2023/08/27 06:44:10;;;;;;;8.97;5.13;;;;;;;13.84;100.00;100693.50;5262010;28;20110;-77
2023/08/27 06:46:41;;;;;;;5.73;3.90;;;;;;;13.89;100.00;100690.78;5263507;28;20431;-77
2023/08/27 06:49:13;;;;;;;5.27;3.80;;;;;;;13.99;100.00;100686.13;5244986;28;20047;-76
2023/08/27 06:51:44;;;;;;;7.37;3.50;;;;;;;13.99;100.00;100691.38;5263119;28;20033;-77
2023/08/27 06:54:16;;;;;;;5.07;3.53;;;;;;;14.00;100.00;100693.09;5262400;28;20405;-78
2023/08/27 06:56:47;;;;;;;5.50;3.63;;;;;;;14.09;100.00;100694.59;5258774;28;20104;-78
2023/08/27 06:59:18;;;;;;;6.87;3.57;;;;;;;14.12;100.00;100705.88;5266654;28;20401;-78
2023/08/27 07:01:50;;;;;;;7.07;4.07;;;;;;;14.20;100.00;100693.38;5261841;28;20488;-77
2023/08/27 07:04:22;;;;;;;8.65;4.15;;;;;;;14.30;100.00;100701.00;5277651;28;20115;-77
2023/08/27 07:06:53;;;;;;;11.33;4.83;;;;;;;14.34;100.00;100710.47;5282737;28;20112;-77
2023/08/27 07:09:25;;;;;;;5.23;3.67;;;;;;;14.37;100.00;100716.47;5283596;28;20052;-77
2023/08/27 07:11:57;;;;;;;5.00;3.80;;;;;;;14.49;100.00;100709.13;5281500;28;20463;-78
2023/08/27 07:14:28;;;;;;;5.27;4.00;;;;;;;14.56;100.00;100715.94;5282139;28;20041;-77
2023/08/27 07:16:59;;;;;;;6.93;4.23;;;;;;;14.58;100.00;100717.59;5263066;28;20025;-77
2023/08/27 07:19:31;;;;;;;6.07;3.67;;;;;;;14.67;100.00;100708.63;5267090;28;20086;-78
2023/08/27 07:22:02;;;;;;;8.90;4.93;;;;;;;14.74;100.00;100712.75;5279627;28;20036;-78
2023/08/27 07:24:34;;;;;;;6.67;3.87;;;;;;;14.87;100.00;100702.72;5283146;28;20021;-78
2023/08/27 07:27:05;;;;;;;6.23;3.77;;;;;;;14.98;100.00;100706.81;5282646;28;20033;-78
2023/08/27 07:29:36;;;;;;;8.03;3.93;;;;;;;14.98;100.00;100710.28;5282683;28;20136;-77
2023/08/27 07:32:08;;;;;;;6.83;3.67;;;;;;;14.95;100.00;100711.22;5282490;28;20060;-76
2023/08/27 07:34:39;;;;;;;8.77;4.10;;;;;;;15.04;100.00;100709.22;5283059;28;20106;-77
2023/08/27 07:37:11;;;;;;;7.97;3.93;;;;;;;15.15;100.00;100709.75;5282606;28;20025;-78
2023/08/27 07:39:42;;;;;;;5.73;3.80;;;;;;;15.22;100.00;100718.25;5282245;28;20469;-77
2023/08/27 07:42:14;;;;;;;9.90;5.15;;;;;;;15.26;100.00;100714.59;5282853;28;20024;-78
2023/08/27 07:44:45;;;;;;;6.50;4.10;;;;;;;15.40;100.00;100707.13;5248803;28;20059;-79
2023/08/27 07:47:17;;;;;;;10.40;3.73;;;;;;;15.65;100.00;100722.06;5282776;28;20020;-78
2023/08/27 07:49:48;;;;;;;13.20;4.67;;;;;;;15.74;100.00;100715.63;5277217;28;20029;-77
2023/08/27 07:52:19;;;;;;;12.00;4.63;;;;;;;15.72;100.00;100717.44;5261775;28;20107;-77
2023/08/27 07:54:51;;;;;;;9.20;4.80;;;;;;;15.71;100.00;100710.47;5244477;28;20028;-76
2023/08/27 07:57:22;;;;;;;7.83;4.23;;;;;;;15.85;100.00;100713.50;5261272;28;20458;-76
2023/08/27 07:59:54;;;;;;;9.23;4.87;;;;;;;16.15;100.00;100708.03;5262444;28;20058;-77
2023/08/27 08:02:25;;;;;;;7.00;4.27;;;;;;;16.43;100.00;100712.25;5261716;28;20056;-78
2023/08/27 08:04:56;;;;;;;8.00;4.40;;;;;;;16.57;100.00;100720.47;5262034;28;20028;-78
2023/08/27 08:07:28;;;;;;;7.83;4.17;;;;;;;16.59;100.00;100708.94;5227466;28;20021;-78
2023/08/27 08:09:59;;;;;;;6.67;4.13;;;;;;;16.44;100.00;100712.19;5263389;28;20041;-79
2023/08/27 08:12:31;;;;;;;8.00;3.73;;;;;;;16.29;100.00;100707.50;5261264;28;20102;-77
2023/08/27 08:15:02;;;;;;;10.10;4.53;;;;;;;16.31;100.00;100708.28;5262256;28;20433;-78
2023/08/27 08:17:34;;;;;;;6.40;3.60;;;;;;;16.33;100.00;100715.22;5261296;28;20078;-78
2023/08/27 08:20:06;;;;;;;10.80;4.20;;;;;;;16.38;100.00;100718.53;5262325;28;20036;-78
2023/08/27 08:22:38;;;;;;;11.38;3.80;;;;;;;16.37;98.75;100722.09;5261523;28;20085;-81
2023/08/27 08:25:09;;;;;;;7.07;3.47;;;;;;;16.30;97.21;100715.34;5262108;28;20376;-78
2023/08/27 08:27:41;;;;;;;7.50;3.60;;;;;;;16.44;97.27;100716.56;5265464;28;20025;-78
2023/08/27 08:30:12;;;;;;;8.53;3.97;;;;;;;16.38;95.88;100723.78;5248842;28;20044;-79
2023/08/27 08:32:44;;;;;;;9.67;4.03;;;;;;;16.54;96.06;100731.13;5266038;28;20033;-78
2023/08/27 08:35:15;;;;;;;10.63;3.70;;;;;;;16.83;94.88;100735.22;5270957;28;20032;-78
2023/08/27 08:37:47;;;;;;;6.93;3.90;;;;;;;17.11;94.53;100728.88;5275833;28;20149;-78
2023/08/27 08:40:18;;;;;;;7.23;3.20;;;;;;;17.19;91.01;100736.47;5255305;28;20025;-78
2023/08/27 08:42:58;;;;;;;6.93;3.93;;;;;;;17.31;91.02;100733.34;5267386;28;20033;-77
2023/08/27 08:45:48;;;;;;;7.80;3.80;;;;;;;17.71;90.27;100731.66;5267289;28;20425;-78
2023/08/27 08:48:22;;;;;;;8.00;3.17;;;;;;;17.66;90.13;100717.78;5273282;28;20025;-79
2023/08/27 08:50:54;;;;;;;7.50;3.05;;;;;;;17.50;84.92;100731.66;5275471;28;20016;-78
2023/08/27 08:53:30;;;;;;;6.07;3.20;;;;;;;17.58;84.34;100727.81;5273467;28;20452;-77
2023/08/27 08:56:06;;;;;;;7.57;2.63;;;;;;;17.88;83.67;100727.44;5269096;28;20107;-78
2023/08/27 08:58:41;;;;;;;6.18;3.13;;;;;;;18.31;82.43;100730.78;5242249;28;20021;-81
2023/08/27 09:01:14;;;;;;;5.78;3.35;;;;;;;18.54;81.80;100722.63;5253723;28;20021;-79
2023/08/27 09:03:47;;;;;;;6.60;2.58;;;;;;;18.72;82.30;100720.06;5263955;28;20063;-78
2023/08/27 09:06:19;;;;;;;5.18;2.88;;;;;;;18.86;79.47;100712.34;5246842;28;20040;-78
2023/08/27 09:08:52;;;;;;;6.45;2.70;;;;;;;18.92;80.11;100709.41;5264575;28;20566;-78
2023/08/27 09:11:25;;;;;;;7.53;2.67;;;;;;;18.72;73.59;100718.28;5265129;28;20389;-76
2023/08/27 09:13:57;;;;;;;;;;;;;;;18.90;76.51;100721.84;5267324;28;20086;-76
2023/08/27 09:16:29;;;;;;;7.43;2.67;;;;;;;18.30;76.74;100711.44;5265249;28;20027;-77
2023/08/27 09:19:01;;;;;;;6.65;2.40;;;;;;;18.04;76.25;100697.66;5271267;28;20450;-78
2023/08/27 09:21:34;;;;;;;7.90;2.57;;;;;;;17.93;75.19;100704.34;5285391;28;20067;-78
2023/08/27 09:24:05;;;;;;;5.97;2.33;;;;;;;18.59;75.15;100699.53;5284290;28;20040;-77
2023/08/27 09:26:38;;;;;;;8.40;2.45;;;;;;;18.81;72.38;100701.13;5285092;28;20044;-78
2023/08/27 09:29:09;;;;;;;;;;;;;;;19.01;72.76;100699.34;5284657;28;20379;-79
2023/08/27 09:31:44;;;;;;;8.30;2.80;;;;;;;19.04;72.37;100701.81;5285604;28;19913;-79
2023/08/27 09:34:18;;;;;;;5.55;2.10;;;;;;;19.07;71.72;100706.97;5285293;28;20376;-79
2023/08/27 09:36:51;;;;;;;5.18;2.35;;;;;;;18.62;71.87;100695.03;5284253;28;20067;-79
2023/08/27 09:39:22;;;;;;;5.03;1.88;;;;;;;18.14;73.39;100682.25;5284920;28;20033;-78
2023/08/27 09:41:56;;;;;;;7.43;2.10;;;;;;;17.85;75.26;100683.56;5284627;28;20070;-79
2023/08/27 09:44:27;;;;;;;5.53;2.13;;;;;;;17.68;76.54;100682.53;5285639;28;20040;-78
2023/08/27 09:47:05;;;;;;;6.03;2.60;;;;;;;18.79;74.82;100681.88;5284574;28;20452;-78
2023/08/27 09:49:40;;;;;;;6.85;2.22;;;;;;;19.78;71.60;100680.44;5285240;28;20029;-78
2023/08/27 09:52:12;;;;;;;7.57;2.88;;;;;;;19.92;69.55;100674.41;5266817;28;20391;-77
2023/08/27 09:54:43;;;;;;;7.97;3.45;;;;;;;20.47;65.56;100680.28;5285125;28;20036;-77
2023/08/27 09:57:19;;;;;;;7.10;2.37;;;;;;;20.70;65.21;100682.47;5284718;28;20078;-78
2023/08/27 09:59:52;;;;;;;3.92;2.10;;;;;;;19.80;66.04;100675.94;5285418;28;20025;-78
2023/08/27 10:02:24;;;;;;;7.38;2.08;;;;;;;19.93;67.44;100680.53;5284661;28;20456;-78
2023/08/27 10:04:56;;;;;;;4.38;2.10;;;;;;;20.43;65.74;100684.00;5284625;28;20039;-78
2023/08/27 10:07:27;;;;;;;5.72;1.90;;;;;;;21.06;61.22;100685.78;5266360;28;20040;-78
2023/08/27 10:10:04;;;;;;;4.65;1.98;;;;;;;21.59;58.78;100679.09;5285965;28;20057;-77
2023/08/27 10:12:36;;;;;;;5.30;1.70;;;;;;;22.62;56.81;100678.91;5284945;28;20036;-79
2023/08/27 10:15:08;;;;;;;5.23;1.93;;;;;;;22.47;54.69;100680.78;5267658;28;20051;-78
2023/08/27 10:17:39;;;;;;;4.75;1.70;;;;;;;22.28;55.03;100681.06;5284895;28;20025;-79
2023/08/27 10:20:11;;;;;;;6.50;2.10;;;;;;;21.73;56.22;100677.41;5285044;28;20548;-79
2023/08/27 10:22:42;;;;;;;7.40;2.58;;;;;;;20.53;59.02;100670.19;5285261;28;20666;-77
2023/08/27 10:25:18;;;;;;;7.63;2.20;;;;;;;20.20;62.53;100681.69;5285092;28;20545;-78
2023/08/27 10:27:51;;;;;;;3.90;1.83;;;;;;;20.20;61.83;100672.91;5285650;28;20267;-78
2023/08/27 10:30:23;;;;;;;8.27;2.20;;;;;;;21.56;59.92;100666.03;5286202;28;20033;-77
2023/08/27 10:32:54;;;;;;;5.05;2.33;;;;;;;23.56;56.17;100662.88;5288431;28;20365;-77
2023/08/27 10:35:26;;;;;;;3.30;1.73;;;;;;;24.88;48.38;100665.03;5286029;28;20047;-78
2023/08/27 10:37:58;;;;;;;6.43;1.83;;;;;;;24.87;45.35;100666.84;5282776;28;20025;-78
2023/08/27 10:40:32;;;;;;;6.90;1.85;;;;;;;23.09;48.95;100677.63;5246746;28;20136;-78
2023/08/27 10:43:08;;;;;;;4.93;1.83;;;;;;;21.84;51.69;100669.63;5267818;28;20033;-78
2023/08/27 10:45:40;;;;;;;3.72;1.65;;;;;;;21.07;54.92;100677.72;5267058;28;20140;-79
2023/08/27 10:48:17;;;;;;;3.13;1.70;;;;;;;20.24;58.98;100674.47;5278169;28;20096;-77
2023/08/27 10:50:55;;;;;;;4.72;1.92;;;;;;;20.50;58.34;100680.94;5269178;28;20120;-78
2023/08/27 10:53:58;;;;;;;3.92;2.03;;;;;;;20.53;58.47;100682.56;5270207;28;20068;-77
2023/08/27 10:56:32;;;;;;;4.70;1.90;;;;;;;20.19;59.63;100679.16;5269364;28;20037;-78
2023/08/27 10:59:24;;;;;;;5.97;1.92;;;;;;;20.10;60.73;100672.56;5266965;28;20029;-79
2023/08/27 11:02:07;;;;;;;5.38;2.10;;;;;;;19.77;62.36;100673.44;5266256;28;20033;-78
2023/08/27 11:04:43;;;;;;;3.53;1.90;;;;;;;20.56;60.30;100674.47;5284143;28;20088;-79
2023/08/27 11:07:19;;;;;;;5.10;1.73;;;;;;;22.86;54.74;100679.13;5283510;28;20033;-78
2023/08/27 11:09:56;;;;;;;4.38;1.63;;;;;;;24.88;50.46;100673.03;5284621;28;20522;-79
2023/08/27 11:12:33;;;;;;;4.85;1.63;;;;;;;25.71;46.83;100677.38;5283807;28;20055;-80
2023/08/27 11:15:12;;;;;;;5.20;1.63;;;;;;;24.22;45.79;100676.03;5273399;28;20033;-77
2023/08/27 11:17:45;;;;;;;2.90;1.40;;;;;;;22.65;48.35;100676.06;5261753;28;20035;-78
2023/08/27 11:20:35;;;;;;;2.72;1.33;;;;;;;21.64;52.35;100682.31;5244390;28;20032;-78
2023/08/27 11:23:08;;;;;;;1.73;1.08;;;;;;;20.22;54.26;100692.19;5262073;28;20415;-77
2023/08/27 11:25:42;;;;;;;2.40;1.35;;;;;;;18.41;70.66;100737.34;5262552;28;20033;-80
2023/08/27 11:28:14;;;;;;;5.78;2.67;;;;;;;16.24;83.89;100741.88;5262001;28;20033;-81
2023/08/27 11:30:45;;;;;;;5.18;1.58;;;;;;;15.25;90.60;100732.16;5262663;28;20040;-84
2023/08/27 11:33:22;;;;;;;3.50;1.83;;;;;;;14.90;96.79;100725.41;5270821;28;20368;-83
2023/08/27 11:35:57;;;;;;;2.58;1.45;;;;;;;15.09;100.00;100729.16;5254975;28;20024;-83
2023/08/27 11:38:28;;;;;;;2.05;1.20;;;;;;;15.95;99.50;100728.00;5264462;28;20116;-81
2023/08/27 11:41:00;;;;;;;3.47;1.30;;;;;;;16.44;86.02;100727.09;5267000;28;20123;-81
2023/08/27 11:43:33;;;;;;;2.10;1.23;;;;;;;16.46;83.83;100730.56;5261694;28;20423;-82